sensor_id;sensor_type;location;lat;lon;timestamp;P1;durP1;ratioP1;P2;durP2;ratioP2
80307;SDS011;69616;43.522;1.348;2024-02-21T00:01:07;21.47;;;9.90;;
80307;SDS011;69616;43.522;1.348;2024-02-21T00:03:33;24.73;;;10.27;;
80307;SDS011;69616;43.522;1.348;2024-02-21T00:05:58;17.30;;;9.30;;
80307;SDS011;69616;43.522;1.348;2024-02-21T00:08:24;22.63;;;10.33;;
80307;SDS011;69616;43.522;1.348;2024-02-21T00:10:49;22.25;;;10.65;;
80307;SDS011;69616;43.522;1.348;2024-02-21T00:13:15;20.97;;;10.00;;
80307;SDS011;69616;43.522;1.348;2024-02-21T00:15:40;20.27;;;10.30;;
80307;SDS011;69616;43.522;1.348;2024-02-21T00:18:05;25.63;;;10.32;;
80307;SDS011;69616;43.522;1.348;2024-02-21T00:20:31;24.33;;;9.93;;
80307;SDS011;69616;43.522;1.348;2024-02-21T00:22:56;20.63;;;9.30;;
80307;SDS011;69616;43.522;1.348;2024-02-21T00:25:22;20.40;;;10.30;;
80307;SDS011;69616;43.522;1.348;2024-02-21T00:27:47;21.60;;;10.13;;
80307;SDS011;69616;43.522;1.348;2024-02-21T00:30:12;22.20;;;9.35;;
80307;SDS011;69616;43.522;1.348;2024-02-21T00:32:38;21.17;;;10.33;;
80307;SDS011;69616;43.522;1.348;2024-02-21T00:35:03;22.63;;;9.13;;
80307;SDS011;69616;43.522;1.348;2024-02-21T00:37:30;21.35;;;9.77;;
80307;SDS011;69616;43.522;1.348;2024-02-21T00:39:56;20.45;;;9.40;;
80307;SDS011;69616;43.522;1.348;2024-02-21T00:42:22;21.00;;;9.50;;
80307;SDS011;69616;43.522;1.348;2024-02-21T00:44:47;21.17;;;9.63;;
80307;SDS011;69616;43.522;1.348;2024-02-21T00:47:13;21.07;;;8.97;;
80307;SDS011;69616;43.522;1.348;2024-02-21T00:49:38;23.40;;;9.83;;
80307;SDS011;69616;43.522;1.348;2024-02-21T00:52:04;21.77;;;10.00;;
80307;SDS011;69616;43.522;1.348;2024-02-21T00:54:29;21.27;;;9.33;;
80307;SDS011;69616;43.522;1.348;2024-02-21T00:56:54;21.47;;;9.60;;
80307;SDS011;69616;43.522;1.348;2024-02-21T00:59:20;21.87;;;9.53;;
80307;SDS011;69616;43.522;1.348;2024-02-21T01:01:45;21.48;;;9.65;;
80307;SDS011;69616;43.522;1.348;2024-02-21T01:04:11;21.20;;;9.73;;
80307;SDS011;69616;43.522;1.348;2024-02-21T01:06:36;18.80;;;8.57;;
80307;SDS011;69616;43.522;1.348;2024-02-21T01:09:01;19.50;;;8.87;;
80307;SDS011;69616;43.522;1.348;2024-02-21T01:11:27;18.30;;;9.07;;
80307;SDS011;69616;43.522;1.348;2024-02-21T01:13:52;17.67;;;8.73;;
80307;SDS011;69616;43.522;1.348;2024-02-21T01:16:18;18.07;;;8.30;;
80307;SDS011;69616;43.522;1.348;2024-02-21T01:18:43;19.70;;;8.18;;
80307;SDS011;69616;43.522;1.348;2024-02-21T01:21:09;15.93;;;8.00;;
80307;SDS011;69616;43.522;1.348;2024-02-21T01:23:35;16.90;;;7.73;;
80307;SDS011;69616;43.522;1.348;2024-02-21T01:26:02;17.43;;;7.53;;
80307;SDS011;69616;43.522;1.348;2024-02-21T01:28:28;18.10;;;7.30;;
80307;SDS011;69616;43.522;1.348;2024-02-21T01:30:54;15.80;;;6.77;;
80307;SDS011;69616;43.522;1.348;2024-02-21T01:33:19;16.42;;;6.97;;
80307;SDS011;69616;43.522;1.348;2024-02-21T01:35:44;17.60;;;7.10;;
80307;SDS011;69616;43.522;1.348;2024-02-21T01:38:10;15.63;;;6.77;;
80307;SDS011;69616;43.522;1.348;2024-02-21T01:40:37;21.58;;;8.52;;
80307;SDS011;69616;43.522;1.348;2024-02-21T01:43:02;17.00;;;7.10;;
80307;SDS011;69616;43.522;1.348;2024-02-21T01:45:28;15.45;;;7.43;;
80307;SDS011;69616;43.522;1.348;2024-02-21T01:47:53;17.07;;;7.50;;
80307;SDS011;69616;43.522;1.348;2024-02-21T01:50:19;19.90;;;8.07;;
80307;SDS011;69616;43.522;1.348;2024-02-21T01:52:46;18.48;;;7.18;;
80307;SDS011;69616;43.522;1.348;2024-02-21T01:55:13;21.48;;;7.80;;
80307;SDS011;69616;43.522;1.348;2024-02-21T01:57:39;18.93;;;7.60;;
80307;SDS011;69616;43.522;1.348;2024-02-21T02:00:06;17.65;;;7.18;;
80307;SDS011;69616;43.522;1.348;2024-02-21T02:02:32;14.65;;;6.68;;
80307;SDS011;69616;43.522;1.348;2024-02-21T02:04:58;18.38;;;7.22;;
80307;SDS011;69616;43.522;1.348;2024-02-21T02:07:25;18.90;;;7.35;;
80307;SDS011;69616;43.522;1.348;2024-02-21T02:09:51;18.50;;;6.83;;
80307;SDS011;69616;43.522;1.348;2024-02-21T02:12:16;17.17;;;6.83;;
80307;SDS011;69616;43.522;1.348;2024-02-21T02:14:42;18.23;;;6.43;;
80307;SDS011;69616;43.522;1.348;2024-02-21T02:17:07;14.73;;;6.63;;
80307;SDS011;69616;43.522;1.348;2024-02-21T02:19:34;15.75;;;6.35;;
80307;SDS011;69616;43.522;1.348;2024-02-21T02:22:00;14.90;;;6.50;;
80307;SDS011;69616;43.522;1.348;2024-02-21T02:24:44;15.68;;;6.25;;
80307;SDS011;69616;43.522;1.348;2024-02-21T02:27:09;13.00;;;5.30;;
80307;SDS011;69616;43.522;1.348;2024-02-21T02:29:35;12.90;;;5.40;;
80307;SDS011;69616;43.522;1.348;2024-02-21T02:32:00;15.43;;;5.28;;
80307;SDS011;69616;43.522;1.348;2024-02-21T02:34:25;15.93;;;5.77;;
80307;SDS011;69616;43.522;1.348;2024-02-21T02:36:51;14.00;;;5.70;;
80307;SDS011;69616;43.522;1.348;2024-02-21T02:39:16;12.93;;;5.63;;
80307;SDS011;69616;43.522;1.348;2024-02-21T02:41:42;16.50;;;5.80;;
80307;SDS011;69616;43.522;1.348;2024-02-21T02:44:07;14.52;;;5.10;;
80307;SDS011;69616;43.522;1.348;2024-02-21T02:46:32;14.90;;;5.33;;
80307;SDS011;69616;43.522;1.348;2024-02-21T02:48:59;11.70;;;4.88;;
80307;SDS011;69616;43.522;1.348;2024-02-21T02:51:24;12.23;;;5.10;;
80307;SDS011;69616;43.522;1.348;2024-02-21T02:53:50;11.33;;;4.70;;
80307;SDS011;69616;43.522;1.348;2024-02-21T02:56:15;11.93;;;5.07;;
80307;SDS011;69616;43.522;1.348;2024-02-21T02:58:42;11.10;;;5.13;;
80307;SDS011;69616;43.522;1.348;2024-02-21T03:01:08;12.02;;;4.78;;
80307;SDS011;69616;43.522;1.348;2024-02-21T03:03:34;12.43;;;5.20;;
80307;SDS011;69616;43.522;1.348;2024-02-21T03:05:59;11.43;;;5.00;;
80307;SDS011;69616;43.522;1.348;2024-02-21T03:08:25;13.90;;;4.77;;
80307;SDS011;69616;43.522;1.348;2024-02-21T03:10:50;11.25;;;4.20;;
80307;SDS011;69616;43.522;1.348;2024-02-21T03:13:15;10.47;;;4.47;;
80307;SDS011;69616;43.522;1.348;2024-02-21T03:15:41;12.03;;;4.73;;
80307;SDS011;69616;43.522;1.348;2024-02-21T03:18:06;12.37;;;5.20;;
80307;SDS011;69616;43.522;1.348;2024-02-21T03:20:32;10.82;;;4.57;;
80307;SDS011;69616;43.522;1.348;2024-02-21T03:22:57;11.07;;;4.90;;
80307;SDS011;69616;43.522;1.348;2024-02-21T03:25:23;12.10;;;5.33;;
80307;SDS011;69616;43.522;1.348;2024-02-21T03:27:48;13.57;;;5.20;;
80307;SDS011;69616;43.522;1.348;2024-02-21T03:30:14;13.77;;;5.15;;
80307;SDS011;69616;43.522;1.348;2024-02-21T03:32:39;14.00;;;5.27;;
80307;SDS011;69616;43.522;1.348;2024-02-21T03:35:05;9.77;;;4.60;;
80307;SDS011;69616;43.522;1.348;2024-02-21T03:37:34;12.05;;;5.05;;
80307;SDS011;69616;43.522;1.348;2024-02-21T03:39:59;13.67;;;4.97;;
80307;SDS011;69616;43.522;1.348;2024-02-21T03:42:24;14.38;;;5.38;;
80307;SDS011;69616;43.522;1.348;2024-02-21T03:44:50;11.83;;;4.80;;
80307;SDS011;69616;43.522;1.348;2024-02-21T03:47:15;12.40;;;5.30;;
80307;SDS011;69616;43.522;1.348;2024-02-21T03:49:41;13.77;;;5.53;;
80307;SDS011;69616;43.522;1.348;2024-02-21T03:52:06;12.73;;;4.90;;
80307;SDS011;69616;43.522;1.348;2024-02-21T03:54:33;12.30;;;4.90;;
80307;SDS011;69616;43.522;1.348;2024-02-21T03:56:58;9.60;;;4.90;;
80307;SDS011;69616;43.522;1.348;2024-02-21T03:59:24;14.10;;;5.23;;
80307;SDS011;69616;43.522;1.348;2024-02-21T04:01:52;10.83;;;5.00;;
80307;SDS011;69616;43.522;1.348;2024-02-21T04:04:18;9.20;;;4.30;;
80307;SDS011;69616;43.522;1.348;2024-02-21T04:06:50;13.53;;;5.37;;
80307;SDS011;69616;43.522;1.348;2024-02-21T04:09:15;13.95;;;5.47;;
80307;SDS011;69616;43.522;1.348;2024-02-21T04:11:41;13.15;;;5.13;;
80307;SDS011;69616;43.522;1.348;2024-02-21T04:14:07;15.03;;;5.03;;
80307;SDS011;69616;43.522;1.348;2024-02-21T04:16:32;12.37;;;5.03;;
80307;SDS011;69616;43.522;1.348;2024-02-21T04:18:59;11.00;;;5.13;;
80307;SDS011;69616;43.522;1.348;2024-02-21T04:21:26;12.55;;;4.90;;
80307;SDS011;69616;43.522;1.348;2024-02-21T04:23:51;11.40;;;4.97;;
80307;SDS011;69616;43.522;1.348;2024-02-21T04:26:16;16.70;;;5.07;;
80307;SDS011;69616;43.522;1.348;2024-02-21T04:28:42;12.20;;;5.03;;
80307;SDS011;69616;43.522;1.348;2024-02-21T04:31:10;14.18;;;5.10;;
80307;SDS011;69616;43.522;1.348;2024-02-21T04:33:35;9.67;;;4.60;;
80307;SDS011;69616;43.522;1.348;2024-02-21T04:36:00;10.98;;;5.07;;
80307;SDS011;69616;43.522;1.348;2024-02-21T04:38:27;12.00;;;5.10;;
80307;SDS011;69616;43.522;1.348;2024-02-21T04:40:54;14.52;;;5.03;;
80307;SDS011;69616;43.522;1.348;2024-02-21T04:43:20;12.00;;;5.15;;
80307;SDS011;69616;43.522;1.348;2024-02-21T04:45:45;11.53;;;4.63;;
80307;SDS011;69616;43.522;1.348;2024-02-21T04:48:11;10.50;;;4.47;;
80307;SDS011;69616;43.522;1.348;2024-02-21T04:50:36;13.27;;;4.70;;
80307;SDS011;69616;43.522;1.348;2024-02-21T04:53:02;10.87;;;4.27;;
80307;SDS011;69616;43.522;1.348;2024-02-21T04:55:27;12.73;;;4.77;;
80307;SDS011;69616;43.522;1.348;2024-02-21T04:57:52;11.45;;;4.43;;
80307;SDS011;69616;43.522;1.348;2024-02-21T05:00:19;10.73;;;4.60;;
80307;SDS011;69616;43.522;1.348;2024-02-21T05:02:44;11.65;;;5.00;;
80307;SDS011;69616;43.522;1.348;2024-02-21T05:05:10;10.03;;;4.03;;
80307;SDS011;69616;43.522;1.348;2024-02-21T05:07:35;9.70;;;4.33;;
80307;SDS011;69616;43.522;1.348;2024-02-21T05:10:00;10.70;;;4.60;;
80307;SDS011;69616;43.522;1.348;2024-02-21T05:12:26;10.88;;;5.05;;
80307;SDS011;69616;43.522;1.348;2024-02-21T05:14:51;11.57;;;5.00;;
80307;SDS011;69616;43.522;1.348;2024-02-21T05:17:17;14.43;;;5.00;;
80307;SDS011;69616;43.522;1.348;2024-02-21T05:19:42;13.70;;;5.27;;
80307;SDS011;69616;43.522;1.348;2024-02-21T05:22:07;12.77;;;5.45;;
80307;SDS011;69616;43.522;1.348;2024-02-21T05:24:33;16.07;;;6.53;;
80307;SDS011;69616;43.522;1.348;2024-02-21T05:26:58;12.50;;;6.40;;
80307;SDS011;69616;43.522;1.348;2024-02-21T05:29:23;11.37;;;5.00;;
80307;SDS011;69616;43.522;1.348;2024-02-21T05:34:20;15.63;;;5.60;;
80307;SDS011;69616;43.522;1.348;2024-02-21T05:36:46;15.80;;;5.37;;
80307;SDS011;69616;43.522;1.348;2024-02-21T05:39:14;12.20;;;5.45;;
80307;SDS011;69616;43.522;1.348;2024-02-21T05:41:41;12.13;;;5.18;;
80307;SDS011;69616;43.522;1.348;2024-02-21T05:44:07;13.37;;;5.20;;
80307;SDS011;69616;43.522;1.348;2024-02-21T05:46:32;13.20;;;5.10;;
80307;SDS011;69616;43.522;1.348;2024-02-21T05:48:57;11.93;;;4.63;;
80307;SDS011;69616;43.522;1.348;2024-02-21T05:51:23;12.23;;;5.20;;
80307;SDS011;69616;43.522;1.348;2024-02-21T05:53:48;11.60;;;5.10;;
80307;SDS011;69616;43.522;1.348;2024-02-21T05:56:14;14.53;;;5.30;;
80307;SDS011;69616;43.522;1.348;2024-02-21T05:58:39;11.88;;;4.85;;
80307;SDS011;69616;43.522;1.348;2024-02-21T06:01:05;13.90;;;4.85;;
80307;SDS011;69616;43.522;1.348;2024-02-21T06:03:32;12.63;;;4.47;;
80307;SDS011;69616;43.522;1.348;2024-02-21T06:05:58;14.65;;;5.05;;
80307;SDS011;69616;43.522;1.348;2024-02-21T06:08:24;14.55;;;5.40;;
80307;SDS011;69616;43.522;1.348;2024-02-21T06:10:49;11.10;;;4.83;;
80307;SDS011;69616;43.522;1.348;2024-02-21T06:13:19;14.05;;;4.85;;
80307;SDS011;69616;43.522;1.348;2024-02-21T06:15:46;13.80;;;4.47;;
80307;SDS011;69616;43.522;1.348;2024-02-21T06:18:12;10.07;;;4.43;;
80307;SDS011;69616;43.522;1.348;2024-02-21T06:20:37;10.60;;;4.25;;
80307;SDS011;69616;43.522;1.348;2024-02-21T06:23:05;12.77;;;4.37;;
80307;SDS011;69616;43.522;1.348;2024-02-21T06:25:31;9.18;;;4.40;;
80307;SDS011;69616;43.522;1.348;2024-02-21T06:27:56;13.77;;;4.40;;
80307;SDS011;69616;43.522;1.348;2024-02-21T06:30:21;13.13;;;4.32;;
80307;SDS011;69616;43.522;1.348;2024-02-21T06:32:47;10.77;;;4.60;;
80307;SDS011;69616;43.522;1.348;2024-02-21T06:35:12;11.57;;;4.77;;
80307;SDS011;69616;43.522;1.348;2024-02-21T06:37:38;12.57;;;5.60;;
80307;SDS011;69616;43.522;1.348;2024-02-21T06:40:04;13.25;;;6.20;;
80307;SDS011;69616;43.522;1.348;2024-02-21T06:42:30;12.73;;;5.38;;
80307;SDS011;69616;43.522;1.348;2024-02-21T06:44:55;11.53;;;5.00;;
80307;SDS011;69616;43.522;1.348;2024-02-21T06:47:21;10.27;;;4.55;;
80307;SDS011;69616;43.522;1.348;2024-02-21T06:49:50;11.53;;;3.80;;
80307;SDS011;69616;43.522;1.348;2024-02-21T06:52:19;16.10;;;4.70;;
80307;SDS011;69616;43.522;1.348;2024-02-21T06:54:45;11.63;;;4.40;;
80307;SDS011;69616;43.522;1.348;2024-02-21T06:57:12;16.23;;;5.30;;
80307;SDS011;69616;43.522;1.348;2024-02-21T06:59:39;12.37;;;4.53;;
80307;SDS011;69616;43.522;1.348;2024-02-21T07:02:05;17.05;;;4.63;;
80307;SDS011;69616;43.522;1.348;2024-02-21T07:04:30;11.43;;;4.70;;
80307;SDS011;69616;43.522;1.348;2024-02-21T07:06:56;11.67;;;4.80;;
80307;SDS011;69616;43.522;1.348;2024-02-21T07:09:21;15.03;;;4.50;;
80307;SDS011;69616;43.522;1.348;2024-02-21T07:11:46;12.83;;;4.57;;
80307;SDS011;69616;43.522;1.348;2024-02-21T07:14:13;11.80;;;4.27;;
80307;SDS011;69616;43.522;1.348;2024-02-21T07:16:39;9.93;;;4.22;;
80307;SDS011;69616;43.522;1.348;2024-02-21T07:19:05;12.70;;;4.60;;
80307;SDS011;69616;43.522;1.348;2024-02-21T07:21:31;12.90;;;4.60;;
80307;SDS011;69616;43.522;1.348;2024-02-21T07:23:56;14.53;;;5.63;;
80307;SDS011;69616;43.522;1.348;2024-02-21T07:26:21;12.27;;;4.40;;
80307;SDS011;69616;43.522;1.348;2024-02-21T07:28:47;12.73;;;4.40;;
80307;SDS011;69616;43.522;1.348;2024-02-21T07:31:12;16.33;;;4.93;;
80307;SDS011;69616;43.522;1.348;2024-02-21T07:33:37;13.87;;;4.50;;
80307;SDS011;69616;43.522;1.348;2024-02-21T07:36:07;14.30;;;5.03;;
80307;SDS011;69616;43.522;1.348;2024-02-21T07:38:33;10.55;;;4.00;;
80307;SDS011;69616;43.522;1.348;2024-02-21T07:40:59;10.20;;;4.50;;
80307;SDS011;69616;43.522;1.348;2024-02-21T07:43:24;10.65;;;4.28;;
80307;SDS011;69616;43.522;1.348;2024-02-21T07:45:51;10.97;;;4.00;;
80307;SDS011;69616;43.522;1.348;2024-02-21T07:48:18;13.10;;;4.20;;
80307;SDS011;69616;43.522;1.348;2024-02-21T07:50:44;13.23;;;4.43;;
80307;SDS011;69616;43.522;1.348;2024-02-21T07:53:09;13.93;;;4.30;;
80307;SDS011;69616;43.522;1.348;2024-02-21T07:55:35;9.77;;;4.38;;
80307;SDS011;69616;43.522;1.348;2024-02-21T07:58:00;10.33;;;4.43;;
80307;SDS011;69616;43.522;1.348;2024-02-21T08:00:26;11.87;;;4.67;;
80307;SDS011;69616;43.522;1.348;2024-02-21T08:02:51;13.63;;;4.37;;
80307;SDS011;69616;43.522;1.348;2024-02-21T08:05:17;21.80;;;5.68;;
80307;SDS011;69616;43.522;1.348;2024-02-21T08:07:42;17.20;;;5.53;;
80307;SDS011;69616;43.522;1.348;2024-02-21T08:10:08;13.15;;;5.32;;
80307;SDS011;69616;43.522;1.348;2024-02-21T08:12:33;12.93;;;5.70;;
80307;SDS011;69616;43.522;1.348;2024-02-21T08:14:59;18.93;;;6.00;;
80307;SDS011;69616;43.522;1.348;2024-02-21T08:17:25;16.10;;;5.68;;
80307;SDS011;69616;43.522;1.348;2024-02-21T08:19:51;14.60;;;4.80;;
80307;SDS011;69616;43.522;1.348;2024-02-21T08:22:16;15.82;;;5.65;;
80307;SDS011;69616;43.522;1.348;2024-02-21T08:24:41;12.30;;;5.50;;
80307;SDS011;69616;43.522;1.348;2024-02-21T08:27:07;14.13;;;4.83;;
80307;SDS011;69616;43.522;1.348;2024-02-21T08:29:32;14.57;;;5.60;;
80307;SDS011;69616;43.522;1.348;2024-02-21T08:31:58;12.82;;;5.38;;
80307;SDS011;69616;43.522;1.348;2024-02-21T08:34:23;12.53;;;5.17;;
80307;SDS011;69616;43.522;1.348;2024-02-21T08:36:48;11.00;;;4.37;;
80307;SDS011;69616;43.522;1.348;2024-02-21T08:39:14;10.73;;;4.20;;
80307;SDS011;69616;43.522;1.348;2024-02-21T08:41:41;13.57;;;4.97;;
80307;SDS011;69616;43.522;1.348;2024-02-21T08:44:07;16.17;;;5.80;;
80307;SDS011;69616;43.522;1.348;2024-02-21T08:46:33;10.57;;;4.50;;
80307;SDS011;69616;43.522;1.348;2024-02-21T08:48:58;9.73;;;4.43;;
80307;SDS011;69616;43.522;1.348;2024-02-21T08:51:24;11.88;;;4.05;;
80307;SDS011;69616;43.522;1.348;2024-02-21T08:53:50;12.73;;;3.80;;
80307;SDS011;69616;43.522;1.348;2024-02-21T08:56:16;9.00;;;3.58;;
80307;SDS011;69616;43.522;1.348;2024-02-21T08:58:42;10.30;;;4.00;;
80307;SDS011;69616;43.522;1.348;2024-02-21T09:01:08;11.53;;;4.60;;
80307;SDS011;69616;43.522;1.348;2024-02-21T09:03:36;10.98;;;3.63;;
80307;SDS011;69616;43.522;1.348;2024-02-21T09:06:03;9.57;;;3.30;;
80307;SDS011;69616;43.522;1.348;2024-02-21T09:08:30;10.02;;;3.30;;
80307;SDS011;69616;43.522;1.348;2024-02-21T09:10:55;9.10;;;3.05;;
80307;SDS011;69616;43.522;1.348;2024-02-21T09:13:21;8.20;;;3.03;;
80307;SDS011;69616;43.522;1.348;2024-02-21T09:15:49;8.40;;;2.70;;
80307;SDS011;69616;43.522;1.348;2024-02-21T09:18:17;9.93;;;3.42;;
80307;SDS011;69616;43.522;1.348;2024-02-21T09:20:43;9.70;;;3.20;;
80307;SDS011;69616;43.522;1.348;2024-02-21T09:23:09;8.98;;;3.03;;
80307;SDS011;69616;43.522;1.348;2024-02-21T09:25:34;11.23;;;3.50;;
80307;SDS011;69616;43.522;1.348;2024-02-21T09:28:01;8.40;;;2.90;;
80307;SDS011;69616;43.522;1.348;2024-02-21T09:30:27;6.90;;;2.83;;
80307;SDS011;69616;43.522;1.348;2024-02-21T09:32:52;10.60;;;3.50;;
80307;SDS011;69616;43.522;1.348;2024-02-21T09:35:18;8.60;;;2.90;;
80307;SDS011;69616;43.522;1.348;2024-02-21T09:37:43;10.32;;;2.50;;
80307;SDS011;69616;43.522;1.348;2024-02-21T09:40:09;8.20;;;2.73;;
80307;SDS011;69616;43.522;1.348;2024-02-21T09:42:38;12.27;;;4.37;;
80307;SDS011;69616;43.522;1.348;2024-02-21T09:45:23;11.30;;;3.88;;
80307;SDS011;69616;43.522;1.348;2024-02-21T09:50:52;9.13;;;4.10;;
80307;SDS011;69616;43.522;1.348;2024-02-21T09:53:20;10.63;;;3.42;;
80307;SDS011;69616;43.522;1.348;2024-02-21T09:55:49;14.43;;;3.87;;
80307;SDS011;69616;43.522;1.348;2024-02-21T09:58:14;11.63;;;3.90;;
80307;SDS011;69616;43.522;1.348;2024-02-21T10:00:40;12.30;;;3.30;;
80307;SDS011;69616;43.522;1.348;2024-02-21T10:03:06;16.27;;;4.07;;
80307;SDS011;69616;43.522;1.348;2024-02-21T10:05:34;9.68;;;3.20;;
80307;SDS011;69616;43.522;1.348;2024-02-21T10:08:00;7.90;;;3.40;;
80307;SDS011;69616;43.522;1.348;2024-02-21T10:10:26;11.77;;;3.00;;
80307;SDS011;69616;43.522;1.348;2024-02-21T10:12:52;10.27;;;2.85;;
80307;SDS011;69616;43.522;1.348;2024-02-21T10:15:23;12.55;;;2.47;;
80307;SDS011;69616;43.522;1.348;2024-02-21T10:17:59;8.17;;;2.60;;
80307;SDS011;69616;43.522;1.348;2024-02-21T10:20:25;8.63;;;2.22;;
80307;SDS011;69616;43.522;1.348;2024-02-21T10:23:01;9.60;;;2.50;;
80307;SDS011;69616;43.522;1.348;2024-02-21T10:25:36;9.38;;;2.35;;
80307;SDS011;69616;43.522;1.348;2024-02-21T10:28:08;8.40;;;1.92;;
80307;SDS011;69616;43.522;1.348;2024-02-21T10:30:33;7.43;;;2.10;;
80307;SDS011;69616;43.522;1.348;2024-02-21T10:32:59;6.90;;;2.10;;
80307;SDS011;69616;43.522;1.348;2024-02-21T10:35:31;11.30;;;2.40;;
80307;SDS011;69616;43.522;1.348;2024-02-21T10:37:58;7.22;;;2.30;;
80307;SDS011;69616;43.522;1.348;2024-02-21T10:40:25;12.55;;;2.80;;
80307;SDS011;69616;43.522;1.348;2024-02-21T10:42:58;8.95;;;2.20;;
80307;SDS011;69616;43.522;1.348;2024-02-21T10:45:34;8.10;;;2.40;;
80307;SDS011;69616;43.522;1.348;2024-02-21T10:48:13;10.63;;;3.43;;
80307;SDS011;69616;43.522;1.348;2024-02-21T10:53:41;7.22;;;2.58;;
80307;SDS011;69616;43.522;1.348;2024-02-21T10:58:50;8.93;;;2.88;;
80307;SDS011;69616;43.522;1.348;2024-02-21T11:01:17;8.40;;;2.50;;
80307;SDS011;69616;43.522;1.348;2024-02-21T11:03:44;7.70;;;2.20;;
80307;SDS011;69616;43.522;1.348;2024-02-21T11:06:12;6.20;;;1.98;;
80307;SDS011;69616;43.522;1.348;2024-02-21T11:08:38;7.55;;;1.92;;
80307;SDS011;69616;43.522;1.348;2024-02-21T11:11:04;7.90;;;2.60;;
80307;SDS011;69616;43.522;1.348;2024-02-21T11:13:36;8.25;;;2.10;;
80307;SDS011;69616;43.522;1.348;2024-02-21T11:16:08;7.75;;;1.98;;
80307;SDS011;69616;43.522;1.348;2024-02-21T11:18:36;10.27;;;2.60;;
80307;SDS011;69616;43.522;1.348;2024-02-21T11:21:02;9.25;;;2.42;;
80307;SDS011;69616;43.522;1.348;2024-02-21T11:23:29;9.18;;;2.65;;
80307;SDS011;69616;43.522;1.348;2024-02-21T11:26:07;8.02;;;2.47;;
80307;SDS011;69616;43.522;1.348;2024-02-21T11:28:33;9.02;;;2.40;;
80307;SDS011;69616;43.522;1.348;2024-02-21T11:31:06;10.90;;;2.07;;
80307;SDS011;69616;43.522;1.348;2024-02-21T11:33:33;10.35;;;2.10;;
80307;SDS011;69616;43.522;1.348;2024-02-21T11:35:59;8.80;;;1.95;;
80307;SDS011;69616;43.522;1.348;2024-02-21T11:38:25;7.07;;;2.03;;
80307;SDS011;69616;43.522;1.348;2024-02-21T11:40:50;7.68;;;1.88;;
80307;SDS011;69616;43.522;1.348;2024-02-21T11:43:16;7.53;;;1.80;;
80307;SDS011;69616;43.522;1.348;2024-02-21T11:45:42;6.43;;;1.70;;
80307;SDS011;69616;43.522;1.348;2024-02-21T11:48:07;7.03;;;1.80;;
80307;SDS011;69616;43.522;1.348;2024-02-21T11:50:34;8.67;;;1.50;;
80307;SDS011;69616;43.522;1.348;2024-02-21T11:53:01;8.95;;;2.30;;
80307;SDS011;69616;43.522;1.348;2024-02-21T11:55:26;6.70;;;1.60;;
80307;SDS011;69616;43.522;1.348;2024-02-21T11:57:53;8.60;;;1.42;;
80307;SDS011;69616;43.522;1.348;2024-02-21T12:00:18;9.97;;;3.00;;
80307;SDS011;69616;43.522;1.348;2024-02-21T12:02:49;6.18;;;1.75;;
80307;SDS011;69616;43.522;1.348;2024-02-21T12:05:15;9.70;;;2.30;;
80307;SDS011;69616;43.522;1.348;2024-02-21T12:07:41;6.40;;;1.80;;
80307;SDS011;69616;43.522;1.348;2024-02-21T12:10:10;7.57;;;2.05;;
80307;SDS011;69616;43.522;1.348;2024-02-21T12:12:36;6.25;;;1.55;;
80307;SDS011;69616;43.522;1.348;2024-02-21T12:15:03;8.38;;;1.92;;
80307;SDS011;69616;43.522;1.348;2024-02-21T12:17:30;9.83;;;1.10;;
80307;SDS011;69616;43.522;1.348;2024-02-21T12:19:56;7.47;;;1.27;;
80307;SDS011;69616;43.522;1.348;2024-02-21T12:22:22;9.60;;;1.42;;
80307;SDS011;69616;43.522;1.348;2024-02-21T12:24:47;6.10;;;1.70;;
80307;SDS011;69616;43.522;1.348;2024-02-21T12:27:13;7.32;;;1.52;;
80307;SDS011;69616;43.522;1.348;2024-02-21T12:29:38;4.80;;;1.40;;
80307;SDS011;69616;43.522;1.348;2024-02-21T12:32:04;7.00;;;2.17;;
80307;SDS011;69616;43.522;1.348;2024-02-21T12:34:30;7.60;;;2.93;;
80307;SDS011;69616;43.522;1.348;2024-02-21T12:36:58;11.07;;;2.20;;
80307;SDS011;69616;43.522;1.348;2024-02-21T12:39:24;7.20;;;1.70;;
80307;SDS011;69616;43.522;1.348;2024-02-21T12:41:52;6.07;;;1.87;;
80307;SDS011;69616;43.522;1.348;2024-02-21T12:44:18;6.30;;;1.60;;
80307;SDS011;69616;43.522;1.348;2024-02-21T12:46:43;6.43;;;1.30;;
80307;SDS011;69616;43.522;1.348;2024-02-21T12:49:10;8.33;;;1.43;;
80307;SDS011;69616;43.522;1.348;2024-02-21T12:51:35;6.18;;;1.40;;
80307;SDS011;69616;43.522;1.348;2024-02-21T12:54:01;9.85;;;1.80;;
80307;SDS011;69616;43.522;1.348;2024-02-21T12:56:29;7.10;;;1.40;;
80307;SDS011;69616;43.522;1.348;2024-02-21T12:58:56;5.15;;;1.50;;
80307;SDS011;69616;43.522;1.348;2024-02-21T13:01:22;7.40;;;1.58;;
80307;SDS011;69616;43.522;1.348;2024-02-21T13:03:48;7.03;;;1.40;;
80307;SDS011;69616;43.522;1.348;2024-02-21T13:06:13;5.63;;;1.40;;
80307;SDS011;69616;43.522;1.348;2024-02-21T13:08:39;6.30;;;1.50;;
80307;SDS011;69616;43.522;1.348;2024-02-21T13:11:05;6.88;;;1.40;;
80307;SDS011;69616;43.522;1.348;2024-02-21T13:13:32;6.17;;;1.40;;
80307;SDS011;69616;43.522;1.348;2024-02-21T13:15:58;6.07;;;1.70;;
80307;SDS011;69616;43.522;1.348;2024-02-21T13:18:24;7.55;;;1.92;;
80307;SDS011;69616;43.522;1.348;2024-02-21T13:20:49;7.00;;;1.30;;
80307;SDS011;69616;43.522;1.348;2024-02-21T13:23:14;4.90;;;1.27;;
80307;SDS011;69616;43.522;1.348;2024-02-21T13:25:40;5.27;;;1.20;;
80307;SDS011;69616;43.522;1.348;2024-02-21T13:28:05;4.63;;;1.20;;
80307;SDS011;69616;43.522;1.348;2024-02-21T13:30:32;5.80;;;1.33;;
80307;SDS011;69616;43.522;1.348;2024-02-21T13:32:57;9.05;;;2.40;;
80307;SDS011;69616;43.522;1.348;2024-02-21T13:35:22;4.90;;;1.23;;
80307;SDS011;69616;43.522;1.348;2024-02-21T13:37:48;4.33;;;1.00;;
80307;SDS011;69616;43.522;1.348;2024-02-21T13:40:15;6.68;;;1.63;;
80307;SDS011;69616;43.522;1.348;2024-02-21T13:42:40;6.70;;;1.50;;
80307;SDS011;69616;43.522;1.348;2024-02-21T13:45:06;5.93;;;0.93;;
80307;SDS011;69616;43.522;1.348;2024-02-21T13:47:32;5.50;;;1.10;;
80307;SDS011;69616;43.522;1.348;2024-02-21T13:49:59;7.35;;;1.00;;
80307;SDS011;69616;43.522;1.348;2024-02-21T13:52:24;6.15;;;1.17;;
80307;SDS011;69616;43.522;1.348;2024-02-21T13:54:51;4.43;;;0.90;;
80307;SDS011;69616;43.522;1.348;2024-02-21T13:57:17;8.20;;;2.35;;
80307;SDS011;69616;43.522;1.348;2024-02-21T13:59:42;5.10;;;1.10;;
80307;SDS011;69616;43.522;1.348;2024-02-21T14:02:08;4.50;;;0.90;;
80307;SDS011;69616;43.522;1.348;2024-02-21T14:04:34;5.63;;;1.10;;
80307;SDS011;69616;43.522;1.348;2024-02-21T14:06:59;4.07;;;1.10;;
80307;SDS011;69616;43.522;1.348;2024-02-21T14:09:25;6.83;;;1.40;;
80307;SDS011;69616;43.522;1.348;2024-02-21T14:11:51;7.55;;;1.30;;
80307;SDS011;69616;43.522;1.348;2024-02-21T14:14:16;9.70;;;1.67;;
80307;SDS011;69616;43.522;1.348;2024-02-21T14:16:42;7.70;;;1.40;;
80307;SDS011;69616;43.522;1.348;2024-02-21T14:19:07;5.43;;;1.40;;
80307;SDS011;69616;43.522;1.348;2024-02-21T14:21:34;7.90;;;1.90;;
80307;SDS011;69616;43.522;1.348;2024-02-21T14:24:03;7.43;;;1.60;;
80307;SDS011;69616;43.522;1.348;2024-02-21T14:26:31;6.32;;;1.75;;
80307;SDS011;69616;43.522;1.348;2024-02-21T14:28:57;5.45;;;1.38;;
80307;SDS011;69616;43.522;1.348;2024-02-21T14:31:23;6.07;;;1.23;;
80307;SDS011;69616;43.522;1.348;2024-02-21T14:33:51;4.63;;;1.20;;
80307;SDS011;69616;43.522;1.348;2024-02-21T14:36:17;5.40;;;1.40;;
80307;SDS011;69616;43.522;1.348;2024-02-21T14:38:43;7.20;;;1.40;;
80307;SDS011;69616;43.522;1.348;2024-02-21T14:41:09;6.65;;;1.45;;
80307;SDS011;69616;43.522;1.348;2024-02-21T14:43:37;6.05;;;1.08;;